Dutchess County Airport
KPOU : now visible

Airfield :











YOU CAN JOIN US ON...

 
LOGIN :

Register | Disclaimer

   EN    FR    IT 

 









Legend :    VFR   Marginal VFR   IFR   Intensive IFR   Very Intensive IFR
Visi :
Ceiling :
>= 8 km
>= 3000ft
5 to 8 km
1000 to 3000 ft
1500m to 5 km
500 to 1000 ft
800 to 1500m
200 to 500 ft
< 800m
< 200 ft
Symbols :   Thunderstorms  Fog  Heavy snow  Heavy precipitations  Wind > 20 kt







- Airport Elevation : 165 ft
- IATA code : POU


KPOU - Dutchess County

CURRENT METAR :
  • 192253Z 17008KT 10SM CLR 26/18 A2986 RMK AO2 SLP107 T02560183

EXPIRED METARs :
  • 192153Z 15006G19KT 10SM CLR 27/18 A2987 RMK AO2 SLP110 T02670178
  • 192053Z 16009G17KT 10SM CLR 27/18 A2988 RMK AO2 SLP115 T02720178 58025

TAF KPOU
Valid from the 19 at 20:00 until the 20 at 18:00 UTC


192006Z 1920/2018 16010KT P6SM FEW070
FM192300 16009KT P6SM VCTS BKN060CB
FM200300 17005KT P6SM BKN015
FM201400 23008KT P6SM SCT060
KZBW FIR / North America



MET'MAP, your aeronautical weather chart ! - Copyright ORBIFLY December 2007 - Disclaimer

ORBIFLY MET'MAP TEAM :

Programming & Development : Alexandra Zaïnal
Concept & Development : Baudouin d'Aumeries
Co-Development & Prog : Marc-Olivier Méhu
Technical & hardware support : Manuel Goepfert

Contact : metmap@orbifly.com




SOURCES & CREDITS :

   NOAA       Earth
Advisory